Valle Di Nervion — IBPC — position and weather

sailwx.info

Track history (hours):
 
Tides and Currents Weather Stations Pressure Air Temp Water Temp Dewpoint Dewpoint Depression Visibility Wind Speed Wind Dir Waves Ship Positions

Valle Di Nervion

Last reported at 2014-Dec-10 00:33 UTC. Time now 2014-Dec-19 22:46 UTC.
Position N 36°33' E 014°53'.
Warning: this ship's position is 9 days out of date.

Length 176 m; draft 9.5 m.

Type: Ship (hazmat cat D). MMSI: 247109500.

Date/timePositionNaut miles runAvg speedWind from/ knotsBaromVisibWave heightAir tempDewpointWater temp
2014-Dec-10 00:33N 36°33' E 014°53'1212.2
2014-Dec-09 23:33N 36°38' E 014°39'1312.6
2014-Dec-09 22:33N 36°43' E 014°25'1212.2
2014-Dec-09 21:33N 36°49' E 014°11'1211.9
2014-Dec-09 20:34N 36°54' E 013°58'1212.4
2014-Dec-09 19:33N 37°00' E 013°44'23413.0
2014-Dec-09 01:33N 38°38' E 009°15'1313.3
2014-Dec-09 00:32N 38°43' E 008°59'1312.9
2014-Dec-08 23:33N 38°48' E 008°44'3 0.3
2014-Dec-08 12:21N 38°51' E 008°41'1012.1
2014-Dec-08 11:33N 38°50' E 008°53'1212.4
2014-Dec-08 10:33N 38°59' E 009°06'7 7.1
2014-Dec-08 09:31N 39°06' E 009°03'1 0.8
2014-Dec-08 08:33N 39°05' E 009°02'0 0.0
2014-Dec-08 07:33N 39°05' E 009°02'0 0.0
2014-Dec-08 06:33N 39°05' E 009°02'0 0.0
2014-Dec-08 05:33N 39°05' E 009°02'0 0.0
2014-Dec-08 04:33N 39°05' E 009°02'0 0.0
2014-Dec-08 03:33N 39°05' E 009°02'0 0.0
2014-Dec-08 02:33N 39°05' E 009°02'0 0.0
2014-Dec-08 01:33N 39°05' E 009°02'0 0.0
2014-Dec-08 00:33N 39°05' E 009°02'0 0.0
2014-Dec-07 23:33N 39°05' E 009°02'0 0.0
2014-Dec-07 22:33N 39°05' E 009°02'0 0.0
2014-Dec-07 21:32N 39°05' E 009°02'0 0.0
2014-Dec-07 20:32N 39°05' E 009°02'0 0.0
2014-Dec-07 19:32N 39°05' E 009°02'0 0.0
2014-Dec-07 18:32N 39°05' E 009°02'0 0.0
2014-Dec-07 17:32N 39°05' E 009°02'0 0.0
2014-Dec-07 16:32N 39°05' E 009°02'0 0.0
2014-Dec-07 15:32N 39°05' E 009°02'0 0.0
2014-Dec-07 14:32N 39°05' E 009°02'0 0.0
2014-Dec-07 13:32N 39°05' E 009°02'0 0.0
2014-Dec-07 12:32N 39°05' E 009°02'0 0.0
2014-Dec-07 11:32N 39°05' E 009°02'0 0.0
2014-Dec-07 10:32N 39°05' E 009°02'0 0.0
2014-Dec-07 09:32N 39°05' E 009°02'0 0.0
2014-Dec-07 08:32N 39°05' E 009°02'1 0.9
2014-Dec-07 07:33N 39°05' E 009°03'7 7.1
2014-Dec-07 06:33N 39°00' E 009°10'8 7.9
2014-Dec-07 05:33N 38°54' E 009°16'9 9.2
2014-Dec-07 04:33N 38°48' E 009°25'  
Track history (hours):
 
Tides and Currents Weather Stations Pressure Air Temp Water Temp Dewpoint Dewpoint Depression Visibility Wind Speed Wind Dir Waves Ship Positions

Valle Di Nervion

Last reported at 2014-Dec-10 00:33 UTC. Time now 2014-Dec-19 22:46 UTC.
Position N 36°33' E 014°53'.
Warning: this ship's position is 9 days out of date.

Length 176 m; draft 9.5 m.

Type: Ship (hazmat cat D). MMSI: 247109500.

Date/timePositionNaut miles runAvg speedWind from/ knotsBaromVisibWave heightAir tempDewpointWater temp
2014-Dec-10 00:33N 36°33' E 014°53'1212.2
2014-Dec-09 23:33N 36°38' E 014°39'1312.6
2014-Dec-09 22:33N 36°43' E 014°25'1212.2
2014-Dec-09 21:33N 36°49' E 014°11'1211.9
2014-Dec-09 20:34N 36°54' E 013°58'1212.4
2014-Dec-09 19:33N 37°00' E 013°44'23413.0
2014-Dec-09 01:33N 38°38' E 009°15'1313.3
2014-Dec-09 00:32N 38°43' E 008°59'1312.9
2014-Dec-08 23:33N 38°48' E 008°44'3 0.3
2014-Dec-08 12:21N 38°51' E 008°41'1012.1
2014-Dec-08 11:33N 38°50' E 008°53'1212.4
2014-Dec-08 10:33N 38°59' E 009°06'7 7.1
2014-Dec-08 09:31N 39°06' E 009°03'1 0.8
2014-Dec-08 08:33N 39°05' E 009°02'0 0.0
2014-Dec-08 07:33N 39°05' E 009°02'0 0.0
2014-Dec-08 06:33N 39°05' E 009°02'0 0.0
2014-Dec-08 05:33N 39°05' E 009°02'0 0.0
2014-Dec-08 04:33N 39°05' E 009°02'0 0.0
2014-Dec-08 03:33N 39°05' E 009°02'0 0.0
2014-Dec-08 02:33N 39°05' E 009°02'0 0.0
2014-Dec-08 01:33N 39°05' E 009°02'0 0.0
2014-Dec-08 00:33N 39°05' E 009°02'0 0.0
2014-Dec-07 23:33N 39°05' E 009°02'0 0.0
2014-Dec-07 22:33N 39°05' E 009°02'0 0.0
2014-Dec-07 21:32N 39°05' E 009°02'0 0.0
2014-Dec-07 20:32N 39°05' E 009°02'0 0.0
2014-Dec-07 19:32N 39°05' E 009°02'0 0.0
2014-Dec-07 18:32N 39°05' E 009°02'0 0.0
2014-Dec-07 17:32N 39°05' E 009°02'0 0.0
2014-Dec-07 16:32N 39°05' E 009°02'0 0.0
2014-Dec-07 15:32N 39°05' E 009°02'0 0.0
2014-Dec-07 14:32N 39°05' E 009°02'0 0.0
2014-Dec-07 13:32N 39°05' E 009°02'0 0.0
2014-Dec-07 12:32N 39°05' E 009°02'0 0.0
2014-Dec-07 11:32N 39°05' E 009°02'0 0.0
2014-Dec-07 10:32N 39°05' E 009°02'0 0.0
2014-Dec-07 09:32N 39°05' E 009°02'0 0.0
2014-Dec-07 08:32N 39°05' E 009°02'1 0.9
2014-Dec-07 07:33N 39°05' E 009°03'7 7.1
2014-Dec-07 06:33N 39°00' E 009°10'8 7.9
2014-Dec-07 05:33N 38°54' E 009°16'9 9.2
2014-Dec-07 04:33N 38°48' E 009°25'  

Dump ship's entire track history